Игнатьево

Карта отелей и гостиниц, располагающихся рядом с аэропортом Игнатьево :

Игнатьево
Благовещенск
Амурская область 50° 25' 31.6812" N, 127° 24' 44.8812" E
Код аэродрома ИКАО
UHBB
Код аэродрома RU
УХББ
Координаты
N50.42547° E127.41247°
Превышение над уровнем моря
188
Основная полоса
18/36
Курс магнитный
180,4/000,4
Длина основной ВПП
2806
Ширина основной ВПП
45
Покрытие основной ВПП
Твёрдое (асфальт)
Освещение ВПП
Постоянное
Тип: 
Аэродром
Класс аэродрома: 
Международный
Принадлежность: 
ГА
Статус: 
Действующий
Сайт: 
http://www.amurair.ru/
E-mail аэродрома: 
bqs@amurair.ru
Страна: 
Россия
Регион: 
Амурская область
Город: 
Благовещенск
Дополнительная информация: 
Военный индекс: ЬХББ/XHBB. Оператор: ГУП Амурской области "Аэропорт Благовещенск". Международный аэропорт федерального значения. В декабре 2010 был введён в строй новый аэровокзал пропускной способностью 300 чел./час. Обустроено 44 МС.
Схемы аэропортов: 
Погода: 

Авиационная погода в Игнатьево

Регион: 
Погода METAR: 
UHBB 262030Z 16005MPS CAVOK M16/M20 Q1024 R18/410260 NOSIG RMK QFE753/1004
Время наблюдения
2021-02-26T20:30:00Z
Температура C
-16.0
Точка росы
-20.0
Направление ветра
160
Скорость ветра (узлы)
10
Метео видимость
6.21
Явления погоды
Условия полета
VFR
Аэропорт подробнее: 

Найти трансфер

С помощью этой формы Вы можете найти трансфер из аэропорта Игнатьево в город, аэропорт или вокзал:

Карта места

Javascript is required to view this map.

Погода в аэропортах:

Авиационная погода в Уральске

Регион: 
Погода METAR: 
UARR 262100Z 15012MPS 0550 R22/1400N +SN BLSN BKN012 OVC020 M09/M11 Q1008 R22/453540 TEMPO 0300 RMK QFE752/1003
Время наблюдения
2021-02-26T21:00:00Z
Температура C
-9.0
Точка росы
-11.0
Направление ветра
150
Скорость ветра (узлы)
23
Метео видимость
0.34
Явления погоды
+SN BLSN
Условия полета
LIFR
Аэропорт подробнее: 

Авиационная погода в Якутске

Регион: 
Погода METAR: 
UEEE 262030Z 34003MPS 5000 BR NSC M36/M40 Q1027 R23L/450150 NOSIG RMK QFE761
Время наблюдения
2021-02-26T20:30:00Z
Температура C
-36.0
Точка росы
-40.0
Направление ветра
340
Скорость ветра (узлы)
6
Метео видимость
3.11
Явления погоды
BR
Условия полета
MVFR
Аэропорт подробнее: 

Авиационная погода в Чебоксарах

Регион: 
Погода METAR: 
UWKS 262030Z 14007MPS 1100 R06/P2000N SN BLSN OVC003 M13/M14 Q0995 R06/820537 NOSIG RMK QFE731
Время наблюдения
2021-02-26T20:30:00Z
Температура C
-13.0
Точка росы
-14.0
Направление ветра
140
Скорость ветра (узлы)
14
Метео видимость
0.68
Явления погоды
SN BLSN
Условия полета
LIFR
Аэропорт подробнее: 

Авиационная погода в Череповце

Регион: 
Погода METAR: 
ULWC 261730Z 01002G07MPS 6000 -SN OVC006 M09/M10 Q0995 RESN R21/591036 NOSIG RMK QFE736/0982
Время наблюдения
2021-02-26T17:30:00Z
Температура C
-9.0
Точка росы
-10.0
Направление ветра
10
Скорость ветра (узлы)
4
Метео видимость
3.73
Явления погоды
-SN
Условия полета
IFR
Аэропорт подробнее: